createdAt,value
2022-11-29T00:01:04.565Z,83.47
2022-11-29T00:03:32.301Z,83.46
2022-11-29T00:06:05.540Z,83.38
2022-11-29T00:08:32.071Z,83.58
2022-11-29T00:11:04.069Z,83.86
2022-11-29T00:13:30.590Z,83.75
2022-11-29T00:16:02.134Z,83.92
2022-11-29T00:18:28.566Z,84.10
2022-11-29T00:20:55.009Z,83.42
2022-11-29T00:23:21.502Z,83.97
2022-11-29T00:25:47.958Z,83.35
2022-11-29T00:28:14.391Z,83.53
2022-11-29T00:30:40.869Z,83.14
2022-11-29T00:33:07.475Z,83.39
2022-11-29T00:35:33.903Z,82.90
2022-11-29T00:38:00.428Z,82.68
2022-11-29T00:40:26.901Z,82.74
2022-11-29T00:42:53.439Z,82.44
2022-11-29T00:45:19.928Z,82.08
2022-11-29T00:47:46.367Z,81.81
2022-11-29T00:50:12.804Z,81.81
2022-11-29T00:52:39.205Z,81.83
2022-11-29T00:55:06.214Z,82.06
2022-11-29T00:57:32.706Z,81.97
2022-11-29T00:59:59.125Z,81.79
2022-11-29T01:02:25.859Z,82.01
2022-11-29T01:04:52.356Z,81.64
2022-11-29T01:07:18.841Z,82.02
2022-11-29T01:09:45.302Z,81.64
2022-11-29T01:12:11.827Z,81.61
2022-11-29T01:14:38.362Z,81.57
2022-11-29T01:17:04.839Z,81.86
2022-11-29T01:19:31.437Z,81.91
2022-11-29T01:21:57.889Z,82.00
2022-11-29T01:24:24.425Z,81.76
2022-11-29T01:26:50.912Z,81.80
2022-11-29T01:29:17.383Z,82.07
2022-11-29T01:31:43.876Z,82.15
2022-11-29T01:34:10.654Z,81.82
2022-11-29T01:36:37.152Z,81.79
2022-11-29T01:39:05.847Z,82.33
2022-11-29T01:41:34.615Z,81.96
2022-11-29T01:44:27.953Z,81.95
2022-11-29T01:46:55.059Z,81.77
2022-11-29T01:49:21.455Z,80.91
2022-11-29T01:51:55.428Z,80.67
2022-11-29T01:54:22.606Z,80.81
2022-11-29T01:56:51.688Z,80.68
2022-11-29T01:59:21.888Z,80.31
2022-11-29T02:01:48.407Z,79.94
2022-11-29T02:04:16.097Z,79.72
2022-11-29T02:06:43.267Z,79.38
2022-11-29T02:09:21.062Z,79.34
2022-11-29T02:12:17.043Z,79.68
2022-11-29T02:15:37.669Z,79.06
2022-11-29T02:18:12.093Z,79.19
2022-11-29T02:20:56.930Z,79.30
2022-11-29T02:23:39.432Z,79.42
2022-11-29T02:26:34.206Z,79.28
2022-11-29T02:29:27.092Z,79.44
2022-11-29T02:32:19.609Z,79.68
2022-11-29T02:34:52.102Z,79.44
2022-11-29T02:37:33.724Z,79.77
2022-11-29T02:40:18.310Z,79.48
2022-11-29T02:43:22.322Z,79.92
2022-11-29T02:45:54.588Z,79.50
2022-11-29T02:48:37.600Z,79.55
2022-11-29T02:51:17.800Z,79.35
2022-11-29T02:53:53.766Z,79.57
2022-11-29T02:56:49.619Z,79.20
2022-11-29T02:59:22.569Z,79.32
2022-11-29T03:02:02.488Z,79.59
2022-11-29T03:04:33.246Z,79.42
2022-11-29T03:07:19.104Z,79.40
2022-11-29T03:10:04.873Z,79.73
2022-11-29T03:12:36.636Z,79.77
2022-11-29T03:15:36.149Z,79.42
2022-11-29T03:18:33.359Z,79.45
2022-11-29T03:21:24.428Z,79.48
2022-11-29T03:23:58.733Z,79.78
2022-11-29T03:26:45.616Z,80.57
2022-11-29T03:29:20.709Z,79.88
2022-11-29T03:32:03.569Z,79.18
2022-11-29T03:34:53.022Z,79.26
2022-11-29T03:37:50.121Z,79.49
2022-11-29T03:40:25.242Z,79.84
2022-11-29T03:43:00.020Z,80.25
2022-11-29T03:45:38.650Z,80.34
2022-11-29T03:48:16.519Z,80.60
2022-11-29T03:50:56.759Z,80.55
2022-11-29T03:53:29.114Z,80.41
2022-11-29T03:55:59.969Z,80.43
2022-11-29T03:58:56.960Z,79.99
2022-11-29T04:01:46.614Z,79.98
2022-11-29T04:04:28.061Z,80.38
2022-11-29T04:07:13.298Z,80.49
2022-11-29T04:10:04.548Z,80.18
2022-11-29T04:13:08.341Z,79.59
2022-11-29T04:16:03.027Z,79.87
2022-11-29T04:18:44.852Z,80.03
2022-11-29T04:21:42.254Z,80.15
2022-11-29T04:24:21.023Z,80.33
2022-11-29T04:27:21.434Z,80.12
2022-11-29T04:30:03.581Z,79.84
2022-11-29T04:33:04.552Z,79.91
2022-11-29T04:35:43.113Z,80.63
2022-11-29T04:38:16.848Z,80.32
2022-11-29T04:41:05.980Z,80.30
2022-11-29T04:43:47.340Z,80.87
2022-11-29T04:46:26.899Z,81.29
2022-11-29T04:49:21.929Z,81.67
2022-11-29T04:52:13.040Z,81.68
2022-11-29T04:55:20.794Z,81.13
2022-11-29T04:58:16.410Z,81.04
2022-11-29T05:00:56.048Z,80.60
2022-11-29T05:03:41.430Z,80.70
2022-11-29T05:06:14.031Z,81.20
2022-11-29T05:09:05.189Z,81.25
2022-11-29T05:11:47.622Z,80.99
2022-11-29T05:14:35.855Z,80.98
2022-11-29T05:17:39.759Z,81.30
2022-11-29T05:20:34.083Z,81.31
2022-11-29T05:23:42.140Z,81.16
2022-11-29T05:26:19.576Z,81.59
2022-11-29T05:29:04.285Z,81.95
2022-11-29T05:31:45.911Z,81.54
2022-11-29T05:34:37.548Z,82.12
2022-11-29T05:37:39.096Z,81.68
2022-11-29T05:40:39.247Z,81.45
2022-11-29T05:43:18.704Z,81.43
2022-11-29T05:45:57.567Z,81.76
2022-11-29T05:48:45.216Z,81.47
2022-11-29T05:51:42.180Z,81.83
2022-11-29T05:54:27.311Z,81.82
2022-11-29T05:57:31.249Z,81.37
2022-11-29T06:00:01.087Z,81.38
2022-11-29T06:02:27.592Z,81.52
2022-11-29T06:04:57.178Z,81.86
2022-11-29T06:07:48.364Z,82.15
2022-11-29T06:10:19.742Z,81.35
2022-11-29T06:13:05.643Z,81.79
2022-11-29T06:15:50.861Z,81.68
2022-11-29T06:18:28.528Z,81.81
2022-11-29T06:21:12.536Z,81.96
2022-11-29T06:24:05.888Z,82.11
2022-11-29T06:26:41.262Z,82.22
2022-11-29T06:29:23.680Z,81.90
2022-11-29T06:32:09.904Z,82.02
2022-11-29T06:35:05.256Z,81.91
2022-11-29T06:37:40.509Z,81.70
2022-11-29T06:40:12.040Z,81.88
2022-11-29T06:42:38.609Z,82.21
2022-11-29T06:45:06.109Z,82.81
2022-11-29T06:48:02.690Z,82.87
2022-11-29T06:50:47.717Z,83.01
2022-11-29T06:53:22.586Z,83.20
2022-11-29T06:56:07.447Z,82.92
2022-11-29T06:58:52.443Z,83.13
2022-11-29T07:02:00.309Z,83.52
2022-11-29T07:04:26.737Z,83.39
2022-11-29T07:06:53.603Z,83.44
2022-11-29T07:09:25.504Z,83.55
2022-11-29T07:11:52.241Z,83.62
2022-11-29T07:14:18.930Z,84.07
2022-11-29T07:17:15.299Z,84.48
2022-11-29T07:20:08.804Z,84.40
2022-11-29T07:23:14.109Z,84.48
2022-11-29T07:25:55.946Z,84.42
2022-11-29T07:28:34.419Z,84.42
2022-11-29T07:31:27.469Z,84.37
2022-11-29T07:34:16.472Z,84.27
2022-11-29T07:36:51.711Z,84.26
2022-11-29T07:39:24.891Z,84.09
2022-11-29T07:41:54.310Z,83.95
2022-11-29T07:44:30.613Z,84.00
2022-11-29T07:46:57.042Z,83.67
2022-11-29T07:49:23.476Z,83.97
2022-11-29T07:51:49.958Z,83.79
2022-11-29T07:54:18.821Z,83.70
2022-11-29T07:56:45.664Z,83.45
2022-11-29T07:59:12.912Z,83.35
2022-11-29T08:01:39.863Z,83.02
2022-11-29T08:04:07.844Z,83.17
2022-11-29T08:06:35.387Z,83.08
2022-11-29T08:09:02.276Z,82.96
2022-11-29T08:11:28.724Z,82.88
2022-11-29T08:13:59.931Z,82.79
2022-11-29T08:16:26.650Z,82.64
2022-11-29T08:18:53.164Z,82.11
2022-11-29T08:21:20.278Z,82.35
2022-11-29T08:23:48.394Z,82.31
2022-11-29T08:26:16.064Z,82.56
2022-11-29T08:28:43.019Z,82.40
2022-11-29T08:31:11.839Z,82.09
2022-11-29T08:33:43.200Z,82.21
2022-11-29T08:36:18.901Z,82.08
2022-11-29T08:38:46.254Z,82.09
2022-11-29T08:41:14.574Z,82.01
2022-11-29T08:43:41.553Z,81.71
2022-11-29T08:46:08.219Z,81.85
2022-11-29T08:48:35.669Z,81.78
2022-11-29T08:51:03.041Z,81.55
2022-11-29T08:53:41.244Z,81.37
2022-11-29T08:56:32.181Z,81.65
2022-11-29T08:58:56.531Z,81.65
2022-11-29T09:01:23.054Z,81.47
2022-11-29T09:04:07.000Z,81.15
2022-11-29T09:06:38.865Z,81.39
2022-11-29T09:09:05.982Z,81.14
2022-11-29T09:11:34.455Z,81.14
2022-11-29T09:14:04.034Z,81.23
2022-11-29T09:16:34.290Z,81.29
2022-11-29T09:19:00.861Z,81.60
2022-11-29T09:21:30.031Z,81.46
2022-11-29T09:24:01.744Z,81.42
2022-11-29T09:26:31.169Z,81.85
2022-11-29T09:29:02.777Z,81.29
2022-11-29T09:31:31.137Z,81.32
2022-11-29T09:33:57.656Z,81.36
2022-11-29T09:36:28.485Z,81.43
2022-11-29T09:38:56.591Z,81.59
2022-11-29T09:41:51.937Z,81.47
2022-11-29T09:44:33.541Z,81.43
2022-11-29T09:47:19.143Z,81.43
2022-11-29T09:49:54.691Z,80.95
2022-11-29T09:52:55.091Z,81.26
2022-11-29T09:55:24.452Z,81.24
2022-11-29T09:57:53.479Z,81.60
2022-11-29T10:00:20.644Z,81.31
2022-11-29T10:02:58.335Z,80.85
2022-11-29T10:05:32.504Z,81.46
2022-11-29T10:08:05.975Z,81.43
2022-11-29T10:10:43.136Z,81.03
2022-11-29T10:13:21.369Z,81.42
2022-11-29T10:15:53.016Z,81.81
2022-11-29T10:18:24.098Z,81.73
2022-11-29T10:20:53.640Z,81.84
2022-11-29T10:23:29.343Z,81.64
2022-11-29T10:25:57.916Z,82.05
2022-11-29T10:28:33.476Z,81.89
2022-11-29T10:31:27.441Z,82.25
2022-11-29T10:33:55.624Z,82.24
2022-11-29T10:36:29.608Z,82.22
2022-11-29T10:39:01.220Z,82.18
2022-11-29T10:41:28.139Z,82.39
2022-11-29T10:43:59.706Z,82.22
2022-11-29T10:46:31.051Z,81.97
2022-11-29T10:49:07.976Z,82.22
2022-11-29T10:51:34.933Z,82.25
2022-11-29T10:54:35.942Z,82.58
2022-11-29T10:57:08.406Z,83.18
2022-11-29T10:59:35.079Z,82.66
2022-11-29T11:02:01.939Z,82.55
2022-11-29T11:04:31.843Z,82.03
2022-11-29T11:07:01.397Z,82.07
2022-11-29T11:09:35.896Z,82.03
2022-11-29T11:12:16.930Z,82.05
2022-11-29T11:14:44.718Z,82.34
2022-11-29T11:17:32.609Z,82.39
2022-11-29T11:20:19.715Z,82.50
2022-11-29T11:22:57.944Z,82.12
2022-11-29T11:25:50.046Z,82.28
2022-11-29T11:28:23.802Z,82.52
2022-11-29T11:31:02.808Z,82.52
2022-11-29T11:33:32.726Z,82.53
2022-11-29T11:36:24.995Z,82.72
2022-11-29T11:38:55.916Z,82.49
2022-11-29T11:41:50.670Z,81.37
2022-11-29T11:44:52.328Z,81.96
2022-11-29T11:47:25.689Z,81.89
2022-11-29T11:50:04.057Z,81.50
2022-11-29T11:52:41.322Z,81.69
2022-11-29T11:55:21.464Z,81.75
2022-11-29T11:58:21.245Z,82.13
2022-11-29T12:01:04.469Z,81.70
2022-11-29T12:03:56.515Z,81.70
2022-11-29T12:06:36.929Z,81.63
2022-11-29T12:09:11.689Z,81.84
2022-11-29T12:11:44.100Z,81.95
2022-11-29T12:14:20.063Z,82.34
2022-11-29T12:16:49.135Z,82.45
2022-11-29T12:19:23.725Z,82.36
2022-11-29T12:21:55.845Z,82.13
2022-11-29T12:24:28.201Z,82.38
2022-11-29T12:26:58.921Z,82.56
2022-11-29T12:29:29.223Z,82.61
2022-11-29T12:32:01.692Z,82.50
2022-11-29T12:34:50.674Z,82.53
2022-11-29T12:37:47.571Z,82.70
2022-11-29T12:41:02.621Z,83.28
2022-11-29T12:44:10.381Z,83.42
2022-11-29T12:46:38.429Z,82.87
2022-11-29T12:49:18.357Z,83.15
2022-11-29T12:52:03.547Z,83.06
2022-11-29T12:54:44.075Z,83.38
2022-11-29T12:57:25.038Z,83.12
2022-11-29T13:00:09.041Z,83.23
2022-11-29T13:03:00.595Z,83.29
2022-11-29T13:05:51.854Z,83.07
2022-11-29T13:08:48.676Z,82.75
2022-11-29T13:11:36.163Z,82.46
2022-11-29T13:14:41.452Z,82.07
2022-11-29T13:17:05.405Z,82.13
2022-11-29T13:19:55.356Z,82.61
2022-11-29T13:22:52.557Z,82.64
2022-11-29T13:25:23.559Z,82.57
2022-11-29T13:28:15.359Z,82.20
2022-11-29T13:30:42.115Z,82.68
2022-11-29T13:33:34.424Z,83.10
2022-11-29T13:36:03.787Z,82.60
2022-11-29T13:38:39.306Z,82.69
2022-11-29T13:41:30.901Z,82.72
2022-11-29T13:44:20.336Z,82.28
2022-11-29T13:46:54.600Z,82.65
2022-11-29T13:49:50.012Z,82.92
2022-11-29T13:52:26.542Z,82.75
2022-11-29T13:55:14.612Z,82.39
2022-11-29T14:00:43.791Z,82.50
2022-11-29T14:03:38.444Z,82.60
2022-11-29T14:06:10.005Z,82.43
2022-11-29T14:09:17.393Z,82.35
2022-11-29T14:11:33.886Z,82.66
2022-11-29T14:14:08.872Z,81.89
2022-11-29T14:16:47.653Z,82.16
2022-11-29T14:19:25.214Z,81.50
2022-11-29T14:21:55.962Z,81.67
2022-11-29T14:24:39.488Z,81.58
2022-11-29T14:27:05.945Z,81.66
2022-11-29T14:29:47.346Z,81.79
2022-11-29T14:32:32.059Z,81.47
2022-11-29T14:35:10.657Z,82.07
2022-11-29T14:37:43.866Z,82.01
2022-11-29T14:40:26.248Z,81.91
2022-11-29T14:42:53.505Z,81.75
2022-11-29T14:45:24.760Z,82.48
2022-11-29T14:47:51.194Z,82.27
2022-11-29T14:50:40.144Z,82.05
2022-11-29T14:53:27.465Z,82.24
2022-11-29T14:56:28.796Z,82.59
2022-11-29T14:59:32.810Z,82.63
2022-11-29T15:02:17.502Z,82.67
2022-11-29T15:04:44.974Z,82.95
2022-11-29T15:07:18.568Z,83.20
2022-11-29T15:09:50.068Z,83.40
2022-11-29T15:12:26.726Z,83.60
2022-11-29T15:15:06.223Z,83.57
2022-11-29T15:17:48.950Z,83.15
2022-11-29T15:20:42.974Z,83.07
2022-11-29T15:23:15.114Z,83.14
2022-11-29T15:25:50.003Z,83.54
2022-11-29T15:28:28.230Z,83.44
2022-11-29T15:31:05.090Z,83.76
2022-11-29T15:33:34.391Z,83.43
2022-11-29T15:36:06.915Z,83.42
2022-11-29T15:38:43.429Z,83.54
2022-11-29T15:41:29.972Z,83.59
2022-11-29T15:43:59.361Z,83.51
2022-11-29T15:46:31.849Z,83.49
2022-11-29T15:49:18.204Z,83.78
2022-11-29T15:51:49.575Z,83.69
2022-11-29T15:54:42.226Z,83.74
2022-11-29T15:57:38.319Z,83.97
2022-11-29T16:00:15.673Z,83.69
2022-11-29T16:02:53.633Z,83.75
2022-11-29T16:05:27.700Z,83.46
2022-11-29T16:07:58.269Z,83.32
2022-11-29T16:10:34.960Z,83.60
2022-11-29T16:13:24.732Z,83.32
2022-11-29T16:16:04.834Z,83.65
2022-11-29T16:18:31.652Z,83.81
2022-11-29T16:21:03.556Z,83.19
2022-11-29T16:23:38.301Z,83.41
2022-11-29T16:26:04.644Z,82.79
2022-11-29T16:28:34.561Z,82.79
2022-11-29T16:31:01.269Z,82.89
2022-11-29T16:33:28.012Z,83.20
2022-11-29T16:36:15.761Z,82.91
2022-11-29T16:38:54.343Z,82.70
2022-11-29T16:41:35.285Z,82.88
2022-11-29T16:44:03.509Z,82.56
2022-11-29T16:46:38.665Z,82.77
2022-11-29T16:49:32.603Z,83.24
2022-11-29T16:51:59.448Z,83.25
2022-11-29T16:54:28.634Z,83.31
2022-11-29T16:56:57.110Z,82.93
2022-11-29T16:59:28.037Z,83.06
2022-11-29T17:01:58.072Z,83.17
2022-11-29T17:04:25.550Z,82.86
2022-11-29T17:06:54.110Z,83.05
2022-11-29T17:09:31.520Z,83.18
2022-11-29T17:12:01.644Z,83.23
2022-11-29T17:14:29.385Z,83.47
2022-11-29T17:16:55.949Z,83.03
2022-11-29T17:19:23.722Z,83.34
2022-11-29T17:21:51.711Z,82.97
2022-11-29T17:24:20.995Z,82.96
2022-11-29T17:26:47.426Z,83.05
2022-11-29T17:29:15.855Z,82.92
2022-11-29T17:31:46.419Z,82.50
2022-11-29T17:34:13.292Z,82.63
2022-11-29T17:36:40.429Z,83.29
2022-11-29T17:39:07.187Z,83.11
2022-11-29T17:41:33.841Z,82.71
2022-11-29T17:44:00.815Z,83.31
2022-11-29T17:46:32.690Z,83.52
2022-11-29T17:49:00.968Z,83.80
2022-11-29T17:54:14.652Z,83.07
2022-11-29T17:56:41.106Z,83.12
2022-11-29T17:59:07.606Z,83.05
2022-11-29T18:01:35.935Z,82.47
2022-11-29T18:04:05.126Z,82.65
2022-11-29T18:06:35.908Z,82.85
2022-11-29T18:09:04.145Z,82.69
2022-11-29T18:11:46.824Z,82.33
2022-11-29T18:14:16.631Z,82.63
2022-11-29T18:16:45.433Z,82.64
2022-11-29T18:19:14.934Z,82.25
2022-11-29T18:21:41.371Z,82.32
2022-11-29T18:24:08.310Z,82.35
2022-11-29T18:26:36.484Z,82.29
2022-11-29T18:29:03.849Z,82.07
2022-11-29T18:31:33.279Z,81.85
2022-11-29T18:34:02.010Z,81.94
2022-11-29T18:36:31.329Z,82.17
2022-11-29T18:39:07.352Z,82.04
2022-11-29T18:41:34.276Z,81.92
2022-11-29T18:44:03.911Z,81.80
2022-11-29T18:46:32.668Z,81.89
2022-11-29T18:49:00.947Z,81.85
2022-11-29T18:51:29.100Z,82.17
2022-11-29T18:53:56.215Z,82.13
2022-11-29T18:56:24.398Z,82.07
2022-11-29T18:58:58.670Z,82.28
2022-11-29T19:01:27.717Z,82.12
2022-11-29T19:03:57.251Z,82.29
2022-11-29T19:06:38.885Z,82.18
2022-11-29T19:09:07.933Z,82.34
2022-11-29T19:11:34.871Z,82.38
2022-11-29T19:14:03.961Z,82.41
2022-11-29T19:16:33.413Z,82.51
2022-11-29T19:19:01.019Z,82.84
2022-11-29T19:21:29.857Z,83.21
2022-11-29T19:23:58.733Z,83.43
2022-11-29T19:26:27.163Z,83.10
2022-11-29T19:28:54.060Z,83.31
2022-11-29T19:31:24.984Z,82.96
2022-11-29T19:33:52.659Z,83.05
2022-11-29T19:36:27.553Z,83.14
2022-11-29T19:38:54.635Z,82.91
2022-11-29T19:41:23.489Z,83.12
2022-11-29T19:43:50.542Z,83.46
2022-11-29T19:46:19.859Z,83.24
2022-11-29T19:48:46.633Z,83.22
2022-11-29T19:51:16.468Z,83.45
2022-11-29T19:53:43.685Z,83.46
2022-11-29T19:56:13.294Z,83.43
2022-11-29T19:58:40.046Z,83.69
2022-11-29T20:01:12.159Z,83.80
2022-11-29T20:03:39.661Z,83.72
2022-11-29T20:06:07.533Z,83.58
2022-11-29T20:08:34.671Z,83.70
2022-11-29T20:11:10.942Z,84.02
2022-11-29T20:13:39.219Z,83.50
2022-11-29T20:16:09.825Z,83.64
2022-11-29T20:18:39.267Z,83.64
2022-11-29T20:21:08.921Z,83.35
2022-11-29T20:23:35.599Z,83.35
2022-11-29T20:26:02.238Z,83.18
2022-11-29T20:28:29.259Z,83.23
2022-11-29T20:30:56.680Z,83.27
2022-11-29T20:33:25.366Z,83.73
2022-11-29T20:36:04.564Z,83.38
2022-11-29T20:38:37.325Z,82.81
2022-11-29T20:41:19.538Z,83.05
2022-11-29T20:43:59.886Z,82.93
2022-11-29T20:46:27.217Z,82.92
2022-11-29T20:48:54.889Z,82.72
2022-11-29T20:51:28.529Z,82.44
2022-11-29T20:53:55.178Z,82.50
2022-11-29T20:56:21.778Z,82.75
2022-11-29T20:58:48.369Z,82.64
2022-11-29T21:01:15.721Z,82.43
2022-11-29T21:03:42.519Z,82.12
2022-11-29T21:06:09.160Z,82.11
2022-11-29T21:08:35.799Z,82.50
2022-11-29T21:11:07.452Z,82.40
2022-11-29T21:13:34.528Z,82.64
2022-11-29T21:16:01.735Z,82.01
2022-11-29T21:18:29.723Z,82.76
2022-11-29T21:21:22.778Z,82.53
2022-11-29T21:24:07.663Z,82.74
2022-11-29T21:26:48.109Z,82.48
2022-11-29T21:29:23.349Z,82.34
2022-11-29T21:31:52.756Z,81.69
2022-11-29T21:34:20.737Z,82.42
2022-11-29T21:36:56.417Z,82.61
2022-11-29T21:39:27.288Z,82.34
2022-11-29T21:41:53.700Z,82.84
2022-11-29T21:44:20.576Z,83.35
2022-11-29T21:46:47.383Z,83.22
2022-11-29T21:49:14.044Z,83.10
2022-11-29T21:51:40.783Z,82.85
2022-11-29T21:54:07.232Z,83.42
2022-11-29T21:56:33.896Z,83.45
2022-11-29T21:59:00.507Z,82.97
2022-11-29T22:01:27.757Z,83.07
2022-11-29T22:03:54.888Z,83.08
2022-11-29T22:06:24.377Z,83.11
2022-11-29T22:08:51.035Z,82.82
2022-11-29T22:11:34.370Z,82.75
2022-11-29T22:14:17.420Z,82.71
2022-11-29T22:16:54.252Z,82.59
2022-11-29T22:19:25.415Z,82.71
2022-11-29T22:21:57.127Z,82.58
2022-11-29T22:24:26.319Z,82.46
2022-11-29T22:26:54.270Z,82.49
2022-11-29T22:29:22.073Z,82.70
2022-11-29T22:31:51.814Z,82.24
2022-11-29T22:34:19.613Z,82.29
2022-11-29T22:36:46.540Z,82.32
2022-11-29T22:39:13.167Z,82.31
2022-11-29T22:41:40.984Z,81.77
2022-11-29T22:44:07.439Z,82.15
2022-11-29T22:46:39.722Z,82.66
2022-11-29T22:49:06.416Z,82.46
2022-11-29T22:51:35.703Z,82.30
2022-11-29T22:54:05.370Z,82.37
2022-11-29T22:56:35.890Z,83.19
2022-11-29T22:59:02.979Z,82.77
2022-11-29T23:01:32.027Z,83.09
2022-11-29T23:04:01.176Z,82.26
2022-11-29T23:06:32.732Z,82.10
2022-11-29T23:09:04.482Z,81.50
2022-11-29T23:11:31.262Z,81.70
2022-11-29T23:13:57.712Z,82.35
2022-11-29T23:16:28.126Z,82.34
2022-11-29T23:18:58.261Z,82.61
2022-11-29T23:21:38.890Z,82.38
2022-11-29T23:24:05.487Z,81.82
2022-11-29T23:26:36.592Z,81.84
2022-11-29T23:29:04.448Z,81.87
2022-11-29T23:31:31.628Z,81.75
2022-11-29T23:33:58.733Z,81.99
2022-11-29T23:36:25.795Z,81.76
2022-11-29T23:38:52.670Z,82.00
2022-11-29T23:41:19.193Z,81.99
2022-11-29T23:43:45.717Z,82.16
2022-11-29T23:46:15.201Z,81.78
2022-11-29T23:48:42.011Z,81.82
2022-11-29T23:51:08.977Z,82.13
2022-11-29T23:53:35.561Z,81.33
2022-11-29T23:56:04.978Z,82.07
2022-11-29T23:58:32.810Z,81.97
